createdAt,value
2018-02-14T00:02:20.917Z,61.40
2018-02-14T00:04:49.126Z,61.30
2018-02-14T00:07:16.573Z,61.30
2018-02-14T00:09:44.008Z,61.40
2018-02-14T00:12:11.463Z,61.40
2018-02-14T00:14:38.906Z,61.40
2018-02-14T00:17:06.357Z,61.30
2018-02-14T00:19:33.802Z,61.30
2018-02-14T00:22:01.244Z,61.40
2018-02-14T00:24:28.698Z,61.40
2018-02-14T00:26:56.905Z,61.50
2018-02-14T00:29:24.340Z,61.50
2018-02-14T00:31:51.805Z,61.60
2018-02-14T00:34:19.259Z,61.70
2018-02-14T00:36:47.483Z,61.70
2018-02-14T00:39:14.937Z,61.70
2018-02-14T00:41:42.384Z,61.70
2018-02-14T00:44:09.840Z,61.80
2018-02-14T00:46:37.272Z,61.80
2018-02-14T00:49:05.475Z,62.00
2018-02-14T00:51:32.938Z,62.00
2018-02-14T00:54:00.374Z,62.30
2018-02-14T00:56:27.834Z,62.40
2018-02-14T00:58:55.264Z,62.60
2018-02-14T01:01:22.715Z,62.80
2018-02-14T01:03:50.170Z,62.80
2018-02-14T01:06:17.606Z,62.90
2018-02-14T01:08:45.044Z,63.10
2018-02-14T01:11:12.524Z,63.10
2018-02-14T01:13:40.726Z,63.40
2018-02-14T01:16:08.184Z,63.30
2018-02-14T01:18:41.310Z,63.40
2018-02-14T01:21:08.765Z,63.50
2018-02-14T01:23:36.203Z,63.60
2018-02-14T01:26:03.657Z,63.70
2018-02-14T01:28:31.114Z,63.60
2018-02-14T01:30:58.552Z,63.80
2018-02-14T01:33:26.019Z,63.90
2018-02-14T01:35:53.474Z,63.90
2018-02-14T01:38:20.941Z,63.90
2018-02-14T01:40:48.381Z,64.00
2018-02-14T01:43:15.824Z,64.00
2018-02-14T01:45:43.314Z,64.10
2018-02-14T01:48:10.777Z,64.20
2018-02-14T01:50:39.133Z,64.20
2018-02-14T01:53:06.585Z,64.30
2018-02-14T01:55:34.047Z,64.30
2018-02-14T01:58:01.492Z,64.20
2018-02-14T02:00:28.958Z,64.20
2018-02-14T02:02:56.400Z,64.30
2018-02-14T02:05:23.841Z,64.20
2018-02-14T02:10:25.983Z,64.20
2018-02-14T02:12:53.447Z,64.20
2018-02-14T02:15:20.889Z,64.20
2018-02-14T02:17:48.341Z,64.20
2018-02-14T02:20:16.574Z,64.90
2018-02-14T02:22:44.031Z,64.10
2018-02-14T02:25:11.496Z,64.10
2018-02-14T02:27:38.941Z,64.20
2018-02-14T02:30:06.385Z,64.30
2018-02-14T02:32:33.825Z,64.20
2018-02-14T02:35:02.041Z,64.20
2018-02-14T02:37:29.498Z,64.20
2018-02-14T02:40:08.519Z,64.20
2018-02-14T02:42:35.972Z,64.20
2018-02-14T02:45:04.202Z,64.40
2018-02-14T02:47:31.641Z,64.30
2018-02-14T02:49:59.106Z,64.30
2018-02-14T02:52:26.569Z,64.40
2018-02-14T02:54:54.023Z,64.50
2018-02-14T02:57:21.488Z,64.50
2018-02-14T02:59:48.935Z,64.60
2018-02-14T03:02:16.376Z,64.60
2018-02-14T03:04:44.584Z,64.70
2018-02-14T03:07:12.032Z,64.70
2018-02-14T03:09:39.504Z,64.70
2018-02-14T03:12:06.949Z,64.70
2018-02-14T03:14:34.405Z,64.80
2018-02-14T03:17:02.614Z,64.70
2018-02-14T03:19:30.070Z,64.70
2018-02-14T03:21:57.505Z,64.80
2018-02-14T03:24:25.716Z,64.90
2018-02-14T03:26:53.158Z,64.80
2018-02-14T03:29:20.622Z,64.80
2018-02-14T03:31:48.065Z,65.10
2018-02-14T03:34:16.273Z,64.90
2018-02-14T03:36:43.729Z,64.90
2018-02-14T03:39:11.203Z,64.80
2018-02-14T03:41:38.655Z,64.80
2018-02-14T03:44:06.105Z,64.70
2018-02-14T03:46:34.315Z,64.80
2018-02-14T03:49:01.773Z,64.80
2018-02-14T03:51:29.206Z,64.80
2018-02-14T03:53:57.419Z,64.90
2018-02-14T03:56:24.877Z,64.80
2018-02-14T03:58:52.331Z,65.00
2018-02-14T04:01:19.787Z,65.10
2018-02-14T04:03:47.250Z,65.10
2018-02-14T04:06:14.703Z,65.10
2018-02-14T04:08:42.184Z,65.20
2018-02-14T04:11:09.616Z,65.30
2018-02-14T04:13:37.826Z,65.40
2018-02-14T04:16:05.282Z,65.30
2018-02-14T04:18:33.482Z,65.40
2018-02-14T04:21:00.924Z,65.40
2018-02-14T04:23:28.377Z,65.40
2018-02-14T04:25:55.813Z,65.50
2018-02-14T04:28:26.474Z,65.80
2018-02-14T04:30:53.916Z,65.50
2018-02-14T04:33:22.151Z,65.40
2018-02-14T04:35:49.607Z,65.40
2018-02-14T04:38:17.048Z,65.50
2018-02-14T04:40:44.531Z,65.50
2018-02-14T04:43:11.980Z,65.50
2018-02-14T04:45:39.432Z,65.50
2018-02-14T04:48:06.889Z,65.40
2018-02-14T04:50:34.387Z,65.30
2018-02-14T04:53:01.840Z,65.20
2018-02-14T04:55:29.299Z,65.40
2018-02-14T04:57:56.745Z,65.50
2018-02-14T05:00:24.223Z,65.60
2018-02-14T05:02:51.690Z,65.70
2018-02-14T05:05:19.156Z,65.60
2018-02-14T05:07:46.609Z,65.60
2018-02-14T05:10:14.066Z,65.60
2018-02-14T05:12:41.519Z,65.70
2018-02-14T05:15:08.961Z,65.70
2018-02-14T05:17:37.186Z,65.80
2018-02-14T05:20:04.651Z,65.80
2018-02-14T05:22:32.124Z,65.80
2018-02-14T05:24:59.596Z,65.80
2018-02-14T05:27:27.048Z,65.90
2018-02-14T05:29:54.496Z,65.90
2018-02-14T05:32:21.949Z,66.00
2018-02-14T05:34:49.404Z,66.10
2018-02-14T05:37:16.863Z,66.10
2018-02-14T05:39:44.338Z,66.20
2018-02-14T05:42:11.797Z,66.30
2018-02-14T05:44:39.247Z,66.30
2018-02-14T05:47:06.694Z,66.30
2018-02-14T05:49:34.922Z,66.40
2018-02-14T05:52:02.379Z,66.30
2018-02-14T05:54:29.838Z,66.40
2018-02-14T05:56:57.283Z,66.40
2018-02-14T05:59:24.752Z,66.60
2018-02-14T06:01:52.208Z,66.50
2018-02-14T06:04:19.664Z,66.40
2018-02-14T06:06:47.143Z,66.60
2018-02-14T06:09:14.602Z,66.70
2018-02-14T06:11:42.060Z,66.60
2018-02-14T06:14:09.510Z,66.60
2018-02-14T06:16:36.968Z,66.60
2018-02-14T06:19:04.417Z,66.50
2018-02-14T06:21:32.648Z,66.60
2018-02-14T06:24:00.121Z,66.60
2018-02-14T06:26:27.599Z,66.60
2018-02-14T06:28:55.053Z,66.40
2018-02-14T06:31:22.517Z,66.50
2018-02-14T06:33:49.978Z,66.40
2018-02-14T06:36:17.446Z,66.50
2018-02-14T06:38:44.899Z,66.70
2018-02-14T06:41:12.382Z,66.60
2018-02-14T06:43:39.845Z,66.60
2018-02-14T06:46:07.328Z,66.60
2018-02-14T06:48:35.536Z,66.70
2018-02-14T06:51:03.035Z,66.60
2018-02-14T06:53:30.478Z,66.60
2018-02-14T06:55:57.928Z,66.50
2018-02-14T06:58:25.382Z,66.50
2018-02-14T07:00:52.845Z,66.50
2018-02-14T07:03:20.286Z,66.50
2018-02-14T07:05:48.531Z,66.50
2018-02-14T07:08:15.977Z,66.50
2018-02-14T07:10:43.429Z,66.40
2018-02-14T07:13:10.869Z,66.50
2018-02-14T07:15:38.340Z,66.50
2018-02-14T07:18:05.780Z,66.50
2018-02-14T07:20:33.251Z,66.40
2018-02-14T07:23:00.703Z,66.50
2018-02-14T07:25:28.927Z,67.10
2018-02-14T07:27:56.382Z,66.40
2018-02-14T07:30:23.865Z,66.40
2018-02-14T07:32:51.341Z,66.40
2018-02-14T07:35:18.776Z,66.40
2018-02-14T07:37:46.226Z,66.30
2018-02-14T07:40:13.682Z,66.20
2018-02-14T07:42:41.121Z,66.20
2018-02-14T07:45:08.574Z,66.30
2018-02-14T07:47:36.785Z,66.20
2018-02-14T07:50:04.251Z,66.20
2018-02-14T07:52:31.700Z,66.30
2018-02-14T07:54:59.131Z,66.30
2018-02-14T07:57:27.360Z,66.20
2018-02-14T07:59:54.820Z,66.30
2018-02-14T08:02:22.280Z,66.30
2018-02-14T08:04:49.740Z,66.30
2018-02-14T08:07:17.204Z,66.30
2018-02-14T08:09:44.649Z,66.40
2018-02-14T08:12:12.099Z,66.40
2018-02-14T08:14:40.368Z,66.40
2018-02-14T08:17:07.805Z,66.30
2018-02-14T08:19:35.249Z,66.40
2018-02-14T08:22:02.727Z,66.40
2018-02-14T08:24:30.207Z,66.40
2018-02-14T08:26:57.669Z,66.40
2018-02-14T08:29:25.122Z,66.40
2018-02-14T08:31:52.593Z,66.30
2018-02-14T08:34:20.077Z,66.30
2018-02-14T08:36:47.521Z,66.30
2018-02-14T08:39:14.997Z,66.30
2018-02-14T08:41:43.226Z,66.20
2018-02-14T08:44:10.677Z,66.20
2018-02-14T08:46:38.123Z,66.20
2018-02-14T08:49:05.557Z,66.20
2018-02-14T08:51:33.769Z,66.20
2018-02-14T08:54:01.230Z,66.10
2018-02-14T08:56:28.671Z,66.20
2018-02-14T08:58:56.918Z,66.20
2018-02-14T09:01:24.365Z,66.10
2018-02-14T09:03:51.828Z,66.00
2018-02-14T09:06:19.265Z,65.90
2018-02-14T09:08:46.724Z,65.70
2018-02-14T09:11:14.172Z,65.50
2018-02-14T09:13:41.649Z,65.20
2018-02-14T09:16:09.098Z,64.30
2018-02-14T09:18:36.554Z,64.10
2018-02-14T09:21:03.988Z,64.20
2018-02-14T09:23:31.452Z,63.50
2018-02-14T09:25:58.890Z,64.00
2018-02-14T09:28:26.346Z,62.80
2018-02-14T09:30:53.802Z,63.10
2018-02-14T09:33:21.252Z,64.00
2018-02-14T09:35:48.695Z,62.90
2018-02-14T09:38:16.151Z,63.20
2018-02-14T09:40:44.365Z,62.50
2018-02-14T09:43:11.823Z,62.50
2018-02-14T09:45:39.274Z,59.60
2018-02-14T09:48:06.715Z,60.40
2018-02-14T09:50:34.921Z,59.10
2018-02-14T09:53:02.389Z,59.10
2018-02-14T09:55:29.817Z,58.30
2018-02-14T09:57:58.039Z,59.30
2018-02-14T10:00:25.481Z,59.30
2018-02-14T10:02:52.936Z,59.90
2018-02-14T10:05:20.375Z,58.20
2018-02-14T10:07:48.586Z,59.80
2018-02-14T10:10:16.048Z,59.70
2018-02-14T10:12:43.506Z,58.40
2018-02-14T10:15:10.979Z,59.80
2018-02-14T10:17:38.417Z,59.80
2018-02-14T10:20:05.883Z,60.50
2018-02-14T10:22:33.316Z,59.30
2018-02-14T10:25:00.771Z,58.90
2018-02-14T10:27:28.227Z,57.70
2018-02-14T10:29:55.670Z,58.30
2018-02-14T10:32:23.117Z,56.20
2018-02-14T10:34:50.560Z,56.90
2018-02-14T10:37:18.000Z,57.30
2018-02-14T10:39:46.216Z,55.90
2018-02-14T10:42:13.668Z,55.90
2018-02-14T10:44:41.139Z,56.40
2018-02-14T10:47:08.588Z,57.60
2018-02-14T10:49:36.865Z,56.00
2018-02-14T10:52:05.086Z,57.30
2018-02-14T10:54:32.542Z,57.30
2018-02-14T10:56:59.994Z,55.30
2018-02-14T10:59:27.435Z,56.90
2018-02-14T11:02:00.443Z,56.00
2018-02-14T11:04:27.907Z,55.00
2018-02-14T11:06:55.369Z,56.60
2018-02-14T11:09:22.826Z,55.00
2018-02-14T11:11:50.287Z,54.90
2018-02-14T11:14:17.757Z,55.40
2018-02-14T11:16:45.194Z,54.80
2018-02-14T11:19:12.651Z,54.60
2018-02-14T11:21:40.856Z,53.50
2018-02-14T11:24:08.323Z,53.50
2018-02-14T11:26:35.749Z,55.70
2018-02-14T11:29:03.956Z,55.90
2018-02-14T11:31:31.407Z,55.80
2018-02-14T11:33:58.862Z,56.00
2018-02-14T11:36:26.343Z,54.40
2018-02-14T11:38:53.792Z,54.90
2018-02-14T11:41:21.238Z,54.80
2018-02-14T11:43:49.433Z,54.90
2018-02-14T11:46:16.871Z,54.90
2018-02-14T11:48:45.089Z,53.20
2018-02-14T11:51:12.555Z,53.80
2018-02-14T11:53:39.981Z,53.40
2018-02-14T11:56:08.223Z,53.20
2018-02-14T11:58:35.655Z,53.20
2018-02-14T12:01:03.111Z,52.40
2018-02-14T12:03:30.572Z,50.00
2018-02-14T12:05:58.025Z,49.50
2018-02-14T12:08:26.242Z,49.70
2018-02-14T12:10:53.683Z,49.70
2018-02-14T12:13:21.130Z,49.20
2018-02-14T12:15:48.585Z,49.70
2018-02-14T12:18:16.792Z,50.00
2018-02-14T12:20:44.239Z,50.00
2018-02-14T12:23:11.679Z,50.80
2018-02-14T12:25:39.910Z,49.00
2018-02-14T12:28:07.350Z,49.10
2018-02-14T12:30:34.796Z,47.70
2018-02-14T12:33:02.233Z,46.90
2018-02-14T12:35:29.685Z,47.00
2018-02-14T12:37:57.118Z,49.20
2018-02-14T12:40:24.572Z,47.00
2018-02-14T12:42:52.003Z,44.40
2018-02-14T12:45:20.232Z,46.40
2018-02-14T12:47:47.676Z,46.50
2018-02-14T12:50:15.116Z,46.00
2018-02-14T12:52:42.557Z,43.10
2018-02-14T12:55:10.012Z,44.80
2018-02-14T12:57:37.465Z,43.40
2018-02-14T13:00:04.904Z,43.60
2018-02-14T13:02:32.367Z,45.10
2018-02-14T13:04:59.801Z,44.70
2018-02-14T13:07:27.264Z,44.70
2018-02-14T13:09:54.688Z,44.70
2018-02-14T13:12:22.158Z,45.80
2018-02-14T13:14:50.356Z,46.60
2018-02-14T13:17:17.812Z,45.90
2018-02-14T13:19:45.257Z,44.40
2018-02-14T13:22:12.688Z,45.40
2018-02-14T13:24:40.142Z,44.70
2018-02-14T13:27:07.587Z,45.80
2018-02-14T13:29:35.020Z,45.80
2018-02-14T13:32:02.463Z,45.20
2018-02-14T13:34:30.679Z,43.70
2018-02-14T13:36:58.133Z,43.60
2018-02-14T13:39:26.330Z,43.90
2018-02-14T13:41:53.784Z,44.00
2018-02-14T13:44:21.214Z,41.30
2018-02-14T13:46:49.426Z,45.70
2018-02-14T13:49:16.880Z,45.80
2018-02-14T13:51:44.332Z,42.40
2018-02-14T13:54:11.763Z,44.30
2018-02-14T13:56:39.207Z,43.00
2018-02-14T13:59:06.657Z,42.90
2018-02-14T14:01:34.101Z,43.40
2018-02-14T14:04:01.534Z,42.40
2018-02-14T14:06:29.739Z,43.30
2018-02-14T14:08:57.203Z,43.40
2018-02-14T14:11:24.647Z,45.00
2018-02-14T14:13:52.076Z,42.50
2018-02-14T14:16:19.519Z,40.20
2018-02-14T14:18:46.970Z,39.40
2018-02-14T14:21:14.400Z,38.20
2018-02-14T14:23:41.841Z,39.30
2018-02-14T14:26:10.054Z,41.60
2018-02-14T14:28:37.485Z,41.70
2018-02-14T14:31:05.710Z,41.70
2018-02-14T14:33:33.143Z,41.70
2018-02-14T14:36:00.652Z,39.10
2018-02-14T14:38:29.210Z,42.30
2018-02-14T14:40:57.445Z,40.30
2018-02-14T14:43:24.900Z,40.30
2018-02-14T14:45:52.394Z,41.60
2018-02-14T14:48:19.833Z,39.80
2018-02-14T14:50:47.289Z,41.00
2018-02-14T14:53:14.732Z,41.70
2018-02-14T14:55:42.165Z,42.50
2018-02-14T14:58:09.631Z,41.90
2018-02-14T15:00:37.073Z,41.70
2018-02-14T15:03:04.513Z,40.60
2018-02-14T15:05:32.729Z,40.70
2018-02-14T15:08:00.187Z,40.80
2018-02-14T15:10:27.638Z,41.30
2018-02-14T15:12:55.091Z,40.20
2018-02-14T15:15:23.305Z,41.20
2018-02-14T15:17:50.771Z,41.20
2018-02-14T15:20:18.199Z,40.80
2018-02-14T15:22:46.471Z,41.10
2018-02-14T15:25:14.691Z,41.10
2018-02-14T15:27:42.155Z,41.00
2018-02-14T15:30:09.622Z,42.40
2018-02-14T15:32:37.062Z,43.00
2018-02-14T15:35:04.481Z,42.00
2018-02-14T15:37:31.921Z,40.60
2018-02-14T15:39:59.364Z,40.80
2018-02-14T15:42:26.813Z,40.40
2018-02-14T15:44:54.279Z,41.50
2018-02-14T15:47:21.722Z,41.30
2018-02-14T15:49:49.152Z,42.50
2018-02-14T15:52:16.599Z,42.30
2018-02-14T15:54:44.068Z,42.90
2018-02-14T15:57:11.507Z,42.30
2018-02-14T15:59:38.937Z,44.10
2018-02-14T16:02:06.386Z,43.40
2018-02-14T16:04:34.600Z,44.50
2018-02-14T16:07:02.042Z,44.50
2018-02-14T16:09:29.468Z,44.70
2018-02-14T16:11:56.915Z,45.20
2018-02-14T16:14:24.366Z,44.40
2018-02-14T16:16:51.813Z,44.30
2018-02-14T16:19:19.261Z,44.70
2018-02-14T16:21:46.697Z,44.90
2018-02-14T16:24:14.901Z,45.20
2018-02-14T16:26:42.338Z,45.20
2018-02-14T16:29:10.558Z,46.10
2018-02-14T16:31:38.008Z,46.80
2018-02-14T16:34:05.444Z,46.10
2018-02-14T16:36:33.647Z,46.70
2018-02-14T16:39:01.097Z,46.70
2018-02-14T16:41:28.538Z,47.50
2018-02-14T16:43:56.740Z,47.30
2018-02-14T16:46:24.192Z,47.30
2018-02-14T16:48:51.634Z,47.50
2018-02-14T16:51:19.069Z,47.60
2018-02-14T16:53:46.532Z,47.80
2018-02-14T16:56:13.966Z,47.90
2018-02-14T16:58:41.425Z,47.90
2018-02-14T17:01:08.873Z,48.00
2018-02-14T17:03:36.323Z,48.20
2018-02-14T17:06:04.532Z,48.00
2018-02-14T17:08:31.969Z,48.00
2018-02-14T17:10:59.467Z,48.50
2018-02-14T17:13:27.633Z,48.80
2018-02-14T17:15:55.082Z,48.80
2018-02-14T17:18:22.521Z,48.90
2018-02-14T17:20:50.722Z,49.00
2018-02-14T17:23:18.162Z,49.00
2018-02-14T17:25:46.375Z,49.20
2018-02-14T17:28:13.826Z,49.10
2018-02-14T17:30:41.275Z,49.30
2018-02-14T17:33:09.478Z,49.50
2018-02-14T17:35:36.910Z,49.50
2018-02-14T17:38:05.119Z,49.60
2018-02-14T17:40:32.584Z,49.60
2018-02-14T17:43:00.032Z,49.50
2018-02-14T17:45:27.480Z,49.80
2018-02-14T17:47:55.680Z,49.90
2018-02-14T17:50:23.121Z,49.90
2018-02-14T17:52:51.343Z,49.80
2018-02-14T17:55:18.784Z,49.90
2018-02-14T17:57:46.240Z,50.00
2018-02-14T18:00:13.691Z,50.20
2018-02-14T18:02:41.892Z,50.10
2018-02-14T18:05:09.356Z,50.20
2018-02-14T18:07:36.810Z,50.20
2018-02-14T18:10:04.997Z,50.60
2018-02-14T18:12:32.461Z,50.50
2018-02-14T18:14:59.926Z,50.60
2018-02-14T18:17:27.354Z,50.70
2018-02-14T18:19:55.562Z,50.80
2018-02-14T18:22:23.010Z,50.80
2018-02-14T18:24:50.452Z,50.80
2018-02-14T18:27:18.670Z,50.70
2018-02-14T18:29:46.131Z,50.70
2018-02-14T18:32:13.591Z,50.90
2018-02-14T18:34:41.056Z,51.10
2018-02-14T18:37:08.524Z,51.20
2018-02-14T18:39:35.979Z,51.30
2018-02-14T18:42:03.427Z,51.40
2018-02-14T18:44:30.883Z,51.50
2018-02-14T18:46:58.346Z,51.60
2018-02-14T18:49:26.575Z,51.70
2018-02-14T18:51:54.027Z,51.70
2018-02-14T18:54:21.487Z,51.90
2018-02-14T18:56:48.979Z,51.90
2018-02-14T18:59:16.448Z,51.90
2018-02-14T19:01:43.903Z,52.20
2018-02-14T19:04:11.352Z,52.10
2018-02-14T19:06:38.809Z,52.30
2018-02-14T19:09:06.270Z,52.40
2018-02-14T19:11:33.727Z,52.40
2018-02-14T19:14:01.183Z,52.50
2018-02-14T19:16:28.635Z,52.60
2018-02-14T19:18:56.094Z,52.50
2018-02-14T19:21:23.544Z,52.60
2018-02-14T19:23:50.991Z,52.70
2018-02-14T19:26:19.220Z,53.00
2018-02-14T19:28:46.663Z,53.00
2018-02-14T19:31:14.105Z,53.00
2018-02-14T19:33:41.549Z,53.20
2018-02-14T19:36:09.763Z,53.40
2018-02-14T19:38:37.192Z,53.90
2018-02-14T19:41:05.409Z,53.60
2018-02-14T19:43:32.832Z,53.60
2018-02-14T19:46:01.048Z,53.80
2018-02-14T19:48:28.477Z,53.80
2018-02-14T19:50:56.700Z,53.90
2018-02-14T19:53:24.137Z,53.90
2018-02-14T19:55:51.601Z,53.90
2018-02-14T19:58:19.044Z,54.00
2018-02-14T20:00:47.276Z,54.10
2018-02-14T20:03:14.728Z,54.10
2018-02-14T20:05:42.199Z,54.00
2018-02-14T20:08:09.648Z,54.10
2018-02-14T20:10:37.109Z,54.10
2018-02-14T20:13:04.568Z,54.10
2018-02-14T20:15:32.022Z,54.20
2018-02-14T20:17:59.467Z,54.20
2018-02-14T20:20:26.926Z,54.30
2018-02-14T20:22:55.143Z,54.20
2018-02-14T20:25:22.611Z,54.20
2018-02-14T20:27:50.069Z,54.10
2018-02-14T20:30:17.521Z,54.80
2018-02-14T20:32:44.982Z,54.30
2018-02-14T20:35:12.428Z,54.30
2018-02-14T20:37:39.883Z,54.90
2018-02-14T20:40:08.100Z,54.40
2018-02-14T20:42:35.567Z,54.30
2018-02-14T20:45:03.019Z,54.40
2018-02-14T20:47:30.476Z,54.40
2018-02-14T20:49:57.932Z,54.50
2018-02-14T20:52:25.409Z,54.60
2018-02-14T20:54:52.835Z,54.60
2018-02-14T20:57:21.064Z,54.60
2018-02-14T20:59:48.524Z,54.60
2018-02-14T21:02:15.988Z,54.70
2018-02-14T21:04:43.443Z,54.70
2018-02-14T21:07:10.899Z,54.80
2018-02-14T21:09:38.351Z,54.70
2018-02-14T21:12:05.813Z,54.70
2018-02-14T21:14:33.264Z,55.40
2018-02-14T21:17:00.733Z,54.90
2018-02-14T21:19:28.183Z,54.90
2018-02-14T21:21:55.648Z,54.90
2018-02-14T21:24:23.101Z,54.90
2018-02-14T21:26:51.325Z,55.00
2018-02-14T21:29:18.812Z,55.00
2018-02-14T21:31:46.272Z,55.00
2018-02-14T21:34:13.727Z,55.00
2018-02-14T21:36:41.187Z,55.00
2018-02-14T21:39:08.644Z,55.10
2018-02-14T21:41:36.116Z,55.10
2018-02-14T21:44:03.563Z,55.20
2018-02-14T21:46:31.015Z,55.20
2018-02-14T21:48:58.475Z,55.20
2018-02-14T21:51:25.943Z,55.30
2018-02-14T21:53:53.394Z,55.40
2018-02-14T21:56:20.874Z,55.30
2018-02-14T21:58:48.353Z,55.30
2018-02-14T22:01:15.796Z,55.50
2018-02-14T22:03:43.266Z,55.50
2018-02-14T22:06:10.719Z,55.50
2018-02-14T22:08:38.188Z,55.50
2018-02-14T22:11:05.641Z,55.60
2018-02-14T22:13:33.103Z,55.60
2018-02-14T22:16:01.315Z,55.70
2018-02-14T22:18:28.762Z,55.60
2018-02-14T22:20:56.213Z,55.70
2018-02-14T22:23:23.665Z,55.70
2018-02-14T22:25:51.110Z,55.90
2018-02-14T22:28:18.556Z,55.80
2018-02-14T22:30:46.789Z,55.90
2018-02-14T22:33:14.241Z,55.90
2018-02-14T22:35:41.686Z,55.90
2018-02-14T22:38:09.148Z,55.90
2018-02-14T22:40:36.594Z,56.60
2018-02-14T22:43:04.053Z,56.00
2018-02-14T22:45:31.490Z,56.00
2018-02-14T22:47:58.964Z,56.00
2018-02-14T22:50:27.172Z,56.10
2018-02-14T22:52:54.622Z,56.10
2018-02-14T22:55:22.059Z,56.10
2018-02-14T22:57:49.511Z,56.10
2018-02-14T23:00:21.866Z,56.20
2018-02-14T23:02:49.323Z,56.30
2018-02-14T23:05:16.782Z,56.20
2018-02-14T23:07:44.240Z,56.30
2018-02-14T23:10:15.379Z,56.20
2018-02-14T23:12:42.840Z,56.30
2018-02-14T23:15:10.296Z,56.30
2018-02-14T23:17:37.747Z,56.30
2018-02-14T23:20:05.204Z,56.40
2018-02-14T23:22:32.647Z,56.30
2018-02-14T23:25:00.866Z,56.50
2018-02-14T23:27:28.328Z,56.50
2018-02-14T23:29:55.785Z,56.40
2018-02-14T23:32:23.228Z,56.50
2018-02-14T23:34:50.679Z,56.40
2018-02-14T23:37:18.896Z,56.50
2018-02-14T23:39:46.358Z,56.40
2018-02-14T23:42:13.820Z,56.40
2018-02-14T23:44:41.279Z,56.40
2018-02-14T23:47:08.723Z,56.50
2018-02-14T23:49:36.174Z,56.40
2018-02-14T23:52:04.387Z,56.50
2018-02-14T23:54:31.830Z,56.50
2018-02-14T23:56:59.276Z,56.50
2018-02-14T23:59:27.508Z,56.50
